createdAt,value
2022-08-17T00:00:34.513Z,10.90
2022-08-17T00:02:59.182Z,11.20
2022-08-17T00:05:24.524Z,11.00
2022-08-17T00:07:49.704Z,10.90
2022-08-17T00:10:17.118Z,11.00
2022-08-17T00:12:47.753Z,11.10
2022-08-17T00:15:16.284Z,11.10
2022-08-17T00:17:39.081Z,11.40
2022-08-17T00:20:02.149Z,10.60
2022-08-17T00:22:31.938Z,11.00
2022-08-17T00:24:58.350Z,11.60
2022-08-17T00:27:23.138Z,10.70
2022-08-17T00:29:48.577Z,11.10
2022-08-17T00:33:13.740Z,11.40
2022-08-17T00:34:59.251Z,11.10
2022-08-17T00:37:22.195Z,11.50
2022-08-17T00:39:47.550Z,11.20
2022-08-17T00:42:19.289Z,11.50
2022-08-17T00:44:41.839Z,10.30
2022-08-17T00:47:04.518Z,10.40
2022-08-17T00:49:31.067Z,10.70
2022-08-17T00:51:59.521Z,11.30
2022-08-17T00:54:24.363Z,11.20
2022-08-17T00:56:59.199Z,11.20
2022-08-17T00:59:23.357Z,10.60
2022-08-17T01:01:49.605Z,10.80
2022-08-17T01:04:15.236Z,11.30
2022-08-17T01:06:40.431Z,11.90
2022-08-17T01:09:08.795Z,11.00
2022-08-17T01:11:33.257Z,11.30
2022-08-17T01:13:55.937Z,12.40
2022-08-17T01:16:24.615Z,11.70
2022-08-17T01:18:48.540Z,11.10
2022-08-17T01:21:15.526Z,11.30
2022-08-17T01:23:38.587Z,11.60
2022-08-17T01:26:06.301Z,10.90
2022-08-17T01:28:33.352Z,11.10
2022-08-17T01:31:14.822Z,10.30
2022-08-17T01:33:37.801Z,11.00
2022-08-17T01:36:00.828Z,10.70
2022-08-17T01:38:31.629Z,11.20
2022-08-17T01:40:58.240Z,11.00
2022-08-17T01:43:23.117Z,12.10
2022-08-17T01:45:47.733Z,10.00
2022-08-17T01:48:11.092Z,10.70
2022-08-17T01:50:40.844Z,10.50
2022-08-17T01:53:09.531Z,10.10
2022-08-17T01:55:35.077Z,10.80
2022-08-17T01:57:57.907Z,11.20
2022-08-17T02:00:21.794Z,11.00
2022-08-17T02:02:46.008Z,10.40
2022-08-17T02:05:08.998Z,11.00
2022-08-17T02:07:31.738Z,10.70
2022-08-17T02:10:20.106Z,10.90
2022-08-17T02:12:45.512Z,9.80
2022-08-17T02:15:09.666Z,10.30
2022-08-17T02:17:32.439Z,10.00
2022-08-17T02:19:55.083Z,10.90
2022-08-17T02:22:18.882Z,11.40
2022-08-17T02:25:00.160Z,11.80
2022-08-17T02:27:24.526Z,12.10
2022-08-17T02:29:47.066Z,11.20
2022-08-17T02:32:27.477Z,12.30
2022-08-17T02:34:51.297Z,11.60
2022-08-17T02:37:14.349Z,11.80
2022-08-17T02:39:39.586Z,11.20
2022-08-17T02:42:02.853Z,11.50
2022-08-17T02:44:39.332Z,12.20
2022-08-17T02:47:02.994Z,11.30
2022-08-17T02:49:28.581Z,11.20
2022-08-17T02:51:56.232Z,11.60
2022-08-17T02:54:39.226Z,11.40
2022-08-17T02:57:03.111Z,11.60
2022-08-17T02:59:26.591Z,10.70
2022-08-17T03:01:49.309Z,11.30
2022-08-17T03:04:14.550Z,11.60
2022-08-17T03:06:37.666Z,11.20
2022-08-17T03:09:02.543Z,11.40
2022-08-17T03:11:25.143Z,10.70
2022-08-17T03:13:48.101Z,10.80
2022-08-17T03:16:10.920Z,11.20
2022-08-17T03:18:35.698Z,11.20
2022-08-17T03:20:59.940Z,11.20
2022-08-17T03:23:23.671Z,10.70
2022-08-17T03:25:47.207Z,11.00
2022-08-17T03:28:10.834Z,11.10
2022-08-17T03:30:33.884Z,10.50
2022-08-17T03:32:58.167Z,10.40
2022-08-17T03:35:24.297Z,10.20
2022-08-17T03:37:47.399Z,10.90
2022-08-17T03:40:57.891Z,10.00
2022-08-17T03:43:09.434Z,10.80
2022-08-17T03:45:50.768Z,10.70
2022-08-17T03:48:34.935Z,10.60
2022-08-17T03:51:16.736Z,10.20
2022-08-17T03:54:09.104Z,10.70
2022-08-17T03:56:45.982Z,10.90
2022-08-17T03:59:09.538Z,10.80
2022-08-17T04:01:48.381Z,10.80
2022-08-17T04:04:14.094Z,10.50
2022-08-17T04:06:39.438Z,10.60
2022-08-17T04:09:02.068Z,10.50
2022-08-17T04:11:24.962Z,10.90
2022-08-17T04:13:49.790Z,10.30
2022-08-17T04:16:12.300Z,10.20
2022-08-17T04:18:35.125Z,10.20
2022-08-17T04:20:57.688Z,9.80
2022-08-17T04:23:21.654Z,10.50
2022-08-17T04:25:49.332Z,10.90
2022-08-17T04:28:15.719Z,9.40
2022-08-17T04:30:41.718Z,9.30
2022-08-17T04:33:07.427Z,10.30
2022-08-17T04:35:31.857Z,10.20
2022-08-17T04:37:55.194Z,10.50
2022-08-17T04:40:37.868Z,9.80
2022-08-17T04:43:07.886Z,10.10
2022-08-17T04:45:31.982Z,10.40
2022-08-17T04:47:55.273Z,10.50
2022-08-17T04:50:20.430Z,9.70
2022-08-17T04:52:47.110Z,10.30
2022-08-17T04:55:09.717Z,9.90
2022-08-17T04:57:39.350Z,10.40
2022-08-17T05:00:05.713Z,10.20
2022-08-17T05:02:28.687Z,9.90
2022-08-17T05:04:51.375Z,9.40
2022-08-17T05:07:13.952Z,9.40
2022-08-17T05:09:38.900Z,9.70
2022-08-17T05:12:02.615Z,8.80
2022-08-17T05:14:33.411Z,9.30
2022-08-17T05:16:56.486Z,9.10
2022-08-17T05:19:21.695Z,9.10
2022-08-17T05:21:44.480Z,8.40
2022-08-17T05:24:16.713Z,8.40
2022-08-17T05:26:51.722Z,8.70
2022-08-17T05:29:15.001Z,8.30
2022-08-17T05:31:37.621Z,7.50
2022-08-17T05:34:00.506Z,8.30
2022-08-17T05:36:37.900Z,8.00
2022-08-17T05:39:06.722Z,8.40
2022-08-17T05:41:31.880Z,8.00
2022-08-17T05:43:56.842Z,7.90
2022-08-17T05:46:22.275Z,8.30
2022-08-17T05:48:49.275Z,8.00
2022-08-17T05:51:26.940Z,8.10
2022-08-17T05:53:51.695Z,8.10
2022-08-17T05:56:34.255Z,7.70
2022-08-17T05:58:59.119Z,8.70
2022-08-17T06:01:35.295Z,7.60
2022-08-17T06:04:10.319Z,7.60
2022-08-17T06:06:36.033Z,8.40
2022-08-17T06:09:07.177Z,7.60
2022-08-17T06:11:47.994Z,7.20
2022-08-17T06:14:24.858Z,6.90
2022-08-17T06:16:50.113Z,6.90
2022-08-17T06:19:21.715Z,7.60
2022-08-17T06:21:49.231Z,6.70
2022-08-17T06:24:31.102Z,8.10
2022-08-17T06:26:55.664Z,6.70
2022-08-17T06:29:37.277Z,6.70
2022-08-17T06:32:02.768Z,6.50
2022-08-17T06:34:27.630Z,7.20
2022-08-17T06:36:56.731Z,6.20
2022-08-17T06:39:24.583Z,6.30
2022-08-17T06:42:06.595Z,6.00
2022-08-17T06:44:49.974Z,5.30
2022-08-17T06:47:28.196Z,5.00
2022-08-17T06:49:59.918Z,5.90
2022-08-17T06:52:45.471Z,4.90
2022-08-17T06:55:18.001Z,5.20
2022-08-17T06:57:43.667Z,4.90
2022-08-17T07:00:08.259Z,5.00
2022-08-17T07:02:52.229Z,4.90
2022-08-17T07:05:17.608Z,5.30
2022-08-17T07:08:05.337Z,4.50
2022-08-17T07:10:29.254Z,4.70
2022-08-17T07:12:55.847Z,5.10
2022-08-17T07:15:23.342Z,5.40
2022-08-17T07:17:48.936Z,5.20
2022-08-17T07:20:15.074Z,5.00
2022-08-17T07:22:57.423Z,5.30
2022-08-17T07:25:23.112Z,5.20
2022-08-17T07:27:52.874Z,5.00
2022-08-17T07:30:21.795Z,5.10
2022-08-17T07:32:57.557Z,6.00
2022-08-17T07:35:23.259Z,4.80
2022-08-17T07:38:26.265Z,4.90
2022-08-17T07:40:55.139Z,4.90
2022-08-17T07:43:25.524Z,4.60
2022-08-17T07:46:22.631Z,4.70
2022-08-17T07:48:48.775Z,4.60
2022-08-17T07:51:17.191Z,4.80
2022-08-17T07:53:42.433Z,4.50
2022-08-17T07:56:07.433Z,4.50
2022-08-17T07:58:32.328Z,4.30
2022-08-17T08:01:08.388Z,4.30
2022-08-17T08:03:32.293Z,4.30
2022-08-17T08:06:01.370Z,4.60
2022-08-17T08:08:24.353Z,4.50
2022-08-17T08:10:56.892Z,4.30
2022-08-17T08:13:28.815Z,4.50
2022-08-17T08:15:55.524Z,4.80
2022-08-17T08:18:53.405Z,4.20
2022-08-17T08:21:14.251Z,4.20
2022-08-17T08:23:37.237Z,4.70
2022-08-17T08:25:59.797Z,4.30
2022-08-17T08:28:37.973Z,4.60
2022-08-17T08:31:07.913Z,4.80
2022-08-17T08:33:33.913Z,4.50
2022-08-17T08:36:08.957Z,4.40
2022-08-17T08:38:40.199Z,4.50
2022-08-17T08:41:16.459Z,4.70
2022-08-17T08:43:52.241Z,4.20
2022-08-17T08:46:25.431Z,4.30
2022-08-17T08:48:56.837Z,4.10
2022-08-17T08:51:36.705Z,4.10
2022-08-17T08:54:35.297Z,4.40
2022-08-17T08:57:23.260Z,3.90
2022-08-17T09:00:03.701Z,3.50
2022-08-17T09:02:45.626Z,4.40
2022-08-17T09:05:20.814Z,4.00
2022-08-17T09:07:51.656Z,4.30
2022-08-17T09:10:46.555Z,4.30
2022-08-17T09:13:44.955Z,3.80
2022-08-17T09:16:20.603Z,4.00
2022-08-17T09:19:01.090Z,4.30
2022-08-17T09:21:47.876Z,4.50
2022-08-17T09:24:33.155Z,4.30
2022-08-17T09:26:59.777Z,4.40
2022-08-17T09:29:26.520Z,4.70
2022-08-17T09:32:14.066Z,4.40
2022-08-17T09:34:43.633Z,4.50
2022-08-17T09:37:09.695Z,4.60
2022-08-17T09:39:55.350Z,4.50
2022-08-17T09:42:23.081Z,4.60
2022-08-17T09:45:07.041Z,4.90
2022-08-17T09:47:48.351Z,4.80
2022-08-17T09:51:03.985Z,4.30
2022-08-17T09:53:16.170Z,4.40
2022-08-17T09:55:44.332Z,4.50
2022-08-17T09:58:15.633Z,4.50
2022-08-17T10:00:44.298Z,4.70
2022-08-17T10:03:16.465Z,4.80
2022-08-17T10:05:48.482Z,4.90
2022-08-17T10:08:18.234Z,4.30
2022-08-17T10:10:56.705Z,4.80
2022-08-17T10:13:35.965Z,4.00
2022-08-17T10:16:03.031Z,4.20
2022-08-17T10:18:39.485Z,5.20
2022-08-17T10:21:24.333Z,4.60
2022-08-17T10:24:09.476Z,4.40
2022-08-17T10:26:40.426Z,4.90
2022-08-17T10:29:21.131Z,4.60
2022-08-17T10:31:46.477Z,4.80
2022-08-17T10:34:12.253Z,5.10
2022-08-17T10:36:38.059Z,5.00
2022-08-17T10:39:04.711Z,4.40
2022-08-17T10:41:40.891Z,4.80
2022-08-17T10:44:38.307Z,4.10
2022-08-17T10:46:57.398Z,4.30
2022-08-17T10:49:22.839Z,4.30
2022-08-17T10:51:48.149Z,4.40
2022-08-17T10:54:29.807Z,4.80
2022-08-17T10:56:53.933Z,4.20
2022-08-17T10:59:34.823Z,4.10
2022-08-17T11:02:13.139Z,4.10
2022-08-17T11:04:38.268Z,4.60
2022-08-17T11:07:08.809Z,4.40
2022-08-17T11:09:45.515Z,3.60
2022-08-17T11:12:24.102Z,4.00
2022-08-17T11:15:07.067Z,4.00
2022-08-17T11:17:49.929Z,4.20
2022-08-17T11:20:41.314Z,4.50
2022-08-17T11:23:10.245Z,4.10
2022-08-17T11:25:36.304Z,4.10
2022-08-17T11:28:09.777Z,3.80
2022-08-17T11:31:02.016Z,6.40
2022-08-17T11:33:36.682Z,6.10
2022-08-17T11:36:00.822Z,6.50
2022-08-17T11:38:35.107Z,4.60
2022-08-17T11:41:03.557Z,6.90
2022-08-17T11:43:27.401Z,6.30
2022-08-17T11:45:52.854Z,5.20
2022-08-17T11:48:37.575Z,6.50
2022-08-17T11:51:31.550Z,4.30
2022-08-17T11:54:14.780Z,4.90
2022-08-17T11:56:41.569Z,4.80
2022-08-17T11:59:26.434Z,4.90
2022-08-17T12:01:55.937Z,4.90
2022-08-17T12:04:25.308Z,4.50
2022-08-17T12:07:01.039Z,5.20
2022-08-17T12:09:31.187Z,4.50
2022-08-17T12:11:57.759Z,4.80
2022-08-17T12:15:09.649Z,4.90
2022-08-17T12:17:41.134Z,4.80
2022-08-17T12:20:14.722Z,4.50
2022-08-17T12:22:45.807Z,4.90
2022-08-17T12:25:10.971Z,4.70
2022-08-17T12:27:46.274Z,5.90
2022-08-17T12:30:21.425Z,4.60
2022-08-17T12:32:47.922Z,4.90
2022-08-17T12:35:43.643Z,4.50
2022-08-17T12:38:32.041Z,4.60
2022-08-17T12:40:59.965Z,5.20
2022-08-17T12:43:28.136Z,4.70
2022-08-17T12:46:13.014Z,4.40
2022-08-17T12:48:40.561Z,4.30
2022-08-17T12:51:22.521Z,5.20
2022-08-17T12:53:52.887Z,4.80
2022-08-17T12:56:17.723Z,4.20
2022-08-17T12:58:49.781Z,4.60
2022-08-17T13:01:18.153Z,4.50
2022-08-17T13:03:49.583Z,4.60
2022-08-17T13:06:14.729Z,4.80
2022-08-17T13:08:37.778Z,4.70
2022-08-17T13:11:02.422Z,4.70
2022-08-17T13:13:35.451Z,4.60
2022-08-17T13:16:18.908Z,5.30
2022-08-17T13:18:48.766Z,4.60
2022-08-17T13:21:23.049Z,4.80
2022-08-17T13:24:01.292Z,4.80
2022-08-17T13:26:31.232Z,4.20
2022-08-17T13:28:54.766Z,4.90
2022-08-17T13:31:24.285Z,4.30
2022-08-17T13:33:50.065Z,4.70
2022-08-17T13:36:30.473Z,4.20
2022-08-17T13:39:04.811Z,4.80
2022-08-17T13:41:33.859Z,4.50
2022-08-17T13:43:56.663Z,4.10
2022-08-17T13:46:25.209Z,4.70
2022-08-17T13:48:57.665Z,5.40
2022-08-17T13:51:24.939Z,4.50
2022-08-17T13:53:51.542Z,4.60
2022-08-17T13:56:38.884Z,5.20
2022-08-17T13:59:04.721Z,5.20
2022-08-17T14:01:33.279Z,4.90
2022-08-17T14:03:56.356Z,4.80
2022-08-17T14:06:51.391Z,4.70
2022-08-17T14:09:06.946Z,4.70
2022-08-17T14:11:29.783Z,5.40
2022-08-17T14:13:55.204Z,5.20
2022-08-17T14:16:20.715Z,6.00
2022-08-17T14:18:57.110Z,5.30
2022-08-17T14:21:20.275Z,5.40
2022-08-17T14:23:49.032Z,5.40
2022-08-17T14:26:17.863Z,5.20
2022-08-17T14:28:47.773Z,5.80
2022-08-17T14:31:17.555Z,5.30
2022-08-17T14:33:40.352Z,5.60
2022-08-17T14:36:03.452Z,5.70
2022-08-17T14:38:28.787Z,5.60
2022-08-17T14:40:51.763Z,4.70
2022-08-17T14:43:16.023Z,5.80
2022-08-17T14:45:38.795Z,5.10
2022-08-17T14:48:05.915Z,5.10
2022-08-17T14:50:35.378Z,5.50
2022-08-17T14:52:59.182Z,5.30
2022-08-17T14:55:26.633Z,5.30
2022-08-17T14:57:50.145Z,4.80
2022-08-17T15:00:13.893Z,5.30
2022-08-17T15:02:45.647Z,5.30
2022-08-17T15:05:08.798Z,4.90
2022-08-17T15:07:36.444Z,5.40
2022-08-17T15:10:02.648Z,5.00
2022-08-17T15:12:29.959Z,5.40
2022-08-17T15:14:55.033Z,5.10
2022-08-17T15:17:19.959Z,5.60
2022-08-17T15:19:45.522Z,5.30
2022-08-17T15:22:18.019Z,5.00
2022-08-17T15:24:40.664Z,5.40
2022-08-17T15:27:05.876Z,5.40
2022-08-17T15:29:29.583Z,5.90
2022-08-17T15:31:53.013Z,5.70
2022-08-17T15:34:20.391Z,5.30
2022-08-17T15:36:49.159Z,5.60
2022-08-17T15:39:19.199Z,5.40
2022-08-17T15:41:44.906Z,5.60
2022-08-17T15:44:09.761Z,8.30
2022-08-17T15:46:37.551Z,6.10
2022-08-17T15:49:02.165Z,6.00
2022-08-17T15:51:26.726Z,5.40
2022-08-17T15:53:55.759Z,5.00
2022-08-17T15:56:19.181Z,5.00
2022-08-17T15:58:43.798Z,5.10
2022-08-17T16:01:17.163Z,5.50
2022-08-17T16:04:05.011Z,5.40
2022-08-17T16:06:34.475Z,5.10
2022-08-17T16:08:58.139Z,6.10
2022-08-17T16:11:21.210Z,6.00
2022-08-17T16:13:54.485Z,5.90
2022-08-17T16:16:18.129Z,6.00
2022-08-17T16:18:43.537Z,6.80
2022-08-17T16:21:26.338Z,5.80
2022-08-17T16:23:50.136Z,5.80
2022-08-17T16:26:15.021Z,6.20
2022-08-17T16:28:37.693Z,6.60
2022-08-17T16:31:02.797Z,5.80
2022-08-17T16:33:25.662Z,6.40
2022-08-17T16:35:48.391Z,6.20
2022-08-17T16:38:12.752Z,5.60
2022-08-17T16:40:36.387Z,6.10
2022-08-17T16:43:03.789Z,5.90
2022-08-17T16:45:40.122Z,6.00
2022-08-17T16:48:03.277Z,5.60
2022-08-17T16:50:28.385Z,6.40
2022-08-17T16:53:03.234Z,6.30
2022-08-17T16:55:26.451Z,6.20
2022-08-17T16:57:50.570Z,6.70
2022-08-17T17:00:15.305Z,6.30
2022-08-17T17:02:48.146Z,6.10
2022-08-17T17:05:24.707Z,6.80
2022-08-17T17:07:56.406Z,5.90
2022-08-17T17:10:22.630Z,6.40
2022-08-17T17:13:03.860Z,6.80
2022-08-17T17:15:33.271Z,6.20
2022-08-17T17:18:00.450Z,7.10
2022-08-17T17:20:37.828Z,6.80
2022-08-17T17:23:03.738Z,7.00
2022-08-17T17:25:27.936Z,6.50
2022-08-17T17:27:50.606Z,7.50
2022-08-17T17:30:21.031Z,6.90
2022-08-17T17:32:50.198Z,6.50
2022-08-17T17:35:24.300Z,6.40
2022-08-17T17:37:50.687Z,7.10
2022-08-17T17:40:23.189Z,7.60
2022-08-17T17:42:46.826Z,6.50
2022-08-17T17:45:17.055Z,6.90
2022-08-17T17:47:40.392Z,7.30
2022-08-17T17:50:04.992Z,7.00
2022-08-17T17:52:36.361Z,7.10
2022-08-17T17:55:19.326Z,7.20
2022-08-17T17:57:42.380Z,6.90
2022-08-17T18:00:11.134Z,6.90
2022-08-17T18:02:51.928Z,7.80
2022-08-17T18:05:23.850Z,7.30
2022-08-17T18:08:10.877Z,6.80
2022-08-17T18:10:33.812Z,7.60
2022-08-17T18:13:08.760Z,7.10
2022-08-17T18:15:51.538Z,7.80
2022-08-17T18:18:14.576Z,7.10
2022-08-17T18:20:46.514Z,6.80
2022-08-17T18:23:19.977Z,8.30
2022-08-17T18:25:46.305Z,7.90
2022-08-17T18:28:09.222Z,7.40
2022-08-17T18:30:34.574Z,7.50
2022-08-17T18:33:17.231Z,7.90
2022-08-17T18:35:51.464Z,7.70
2022-08-17T18:38:31.641Z,6.60
2022-08-17T18:41:01.040Z,7.00
2022-08-17T18:43:26.958Z,7.50
2022-08-17T18:45:51.465Z,7.30
2022-08-17T18:48:23.613Z,7.40
2022-08-17T18:50:53.268Z,7.40
2022-08-17T18:53:45.273Z,7.70
2022-08-17T18:56:20.450Z,7.60
2022-08-17T18:58:43.368Z,7.70
2022-08-17T19:01:17.190Z,7.40
2022-08-17T19:03:44.269Z,8.40
2022-08-17T19:06:17.394Z,8.10
2022-08-17T19:08:42.808Z,6.30
2022-08-17T19:11:21.833Z,8.20
2022-08-17T19:14:16.847Z,7.90
2022-08-17T19:16:51.977Z,8.80
2022-08-17T19:19:21.910Z,7.80
2022-08-17T19:21:52.740Z,7.70
2022-08-17T19:24:21.866Z,8.00
2022-08-17T19:26:51.174Z,7.70
2022-08-17T19:29:38.950Z,7.90
2022-08-17T19:32:04.340Z,8.00
2022-08-17T19:34:33.956Z,8.70
2022-08-17T19:37:00.212Z,8.00
2022-08-17T19:39:40.596Z,9.30
2022-08-17T19:42:03.410Z,8.60
2022-08-17T19:44:35.267Z,8.20
2022-08-17T19:47:30.506Z,9.50
2022-08-17T19:50:02.262Z,8.50
2022-08-17T19:52:37.803Z,8.20
2022-08-17T19:55:00.633Z,8.50
2022-08-17T19:57:32.015Z,8.90
2022-08-17T20:00:02.201Z,9.20
2022-08-17T20:02:27.670Z,8.70
2022-08-17T20:04:51.084Z,8.50
2022-08-17T20:07:17.208Z,8.60
2022-08-17T20:09:42.975Z,7.70
2022-08-17T20:12:09.493Z,8.40
2022-08-17T20:14:55.286Z,8.60
2022-08-17T20:17:19.018Z,8.50
2022-08-17T20:19:47.484Z,9.20
2022-08-17T20:22:14.346Z,8.80
2022-08-17T20:24:44.437Z,8.40
2022-08-17T20:27:16.631Z,8.90
2022-08-17T20:30:11.667Z,8.50
2022-08-17T20:32:55.586Z,8.60
2022-08-17T20:35:21.132Z,8.60
2022-08-17T20:37:50.819Z,9.70
2022-08-17T20:40:22.485Z,8.50
2022-08-17T20:42:45.157Z,8.90
2022-08-17T20:45:26.476Z,9.50
2022-08-17T20:48:18.748Z,9.10
2022-08-17T20:50:43.628Z,10.20
2022-08-17T20:53:08.278Z,10.30
2022-08-17T20:55:33.881Z,8.10
2022-08-17T20:57:56.991Z,8.90
2022-08-17T21:00:30.953Z,9.00
2022-08-17T21:03:12.988Z,9.00
2022-08-17T21:06:00.386Z,9.40
2022-08-17T21:08:39.430Z,10.00
2022-08-17T21:11:56.975Z,10.10
2022-08-17T21:14:24.907Z,8.70
2022-08-17T21:16:50.477Z,8.10
2022-08-17T21:19:44.392Z,9.70
2022-08-17T21:22:36.145Z,9.30
2022-08-17T21:25:08.585Z,9.50
2022-08-17T21:27:59.219Z,10.40
2022-08-17T21:30:27.631Z,8.80
2022-08-17T21:33:09.227Z,9.20
2022-08-17T21:35:52.146Z,9.50
2022-08-17T21:38:16.991Z,10.80
2022-08-17T21:40:44.297Z,9.90
2022-08-17T21:43:33.529Z,9.00
2022-08-17T21:46:18.665Z,9.70
2022-08-17T21:48:43.947Z,9.80
2022-08-17T21:51:12.316Z,9.70
2022-08-17T21:53:38.175Z,10.30
2022-08-17T21:56:03.984Z,9.50
2022-08-17T21:58:33.296Z,9.60
2022-08-17T22:01:14.683Z,11.10
2022-08-17T22:03:38.857Z,9.80
2022-08-17T22:06:18.474Z,9.90
2022-08-17T22:08:43.500Z,9.80
2022-08-17T22:11:08.509Z,10.40
2022-08-17T22:13:39.833Z,9.60
2022-08-17T22:16:15.373Z,10.20
2022-08-17T22:18:53.905Z,10.70
2022-08-17T22:21:19.919Z,10.00
2022-08-17T22:24:07.654Z,9.70
2022-08-17T22:26:50.265Z,9.50
2022-08-17T22:29:32.000Z,10.30
2022-08-17T22:31:56.548Z,10.40
2022-08-17T22:34:21.960Z,10.80
2022-08-17T22:36:44.602Z,9.90
2022-08-17T22:39:08.787Z,9.50
2022-08-17T22:41:34.911Z,10.00
2022-08-17T22:44:02.677Z,9.90
2022-08-17T22:46:26.498Z,10.50
2022-08-17T22:48:54.492Z,9.70
2022-08-17T22:51:20.779Z,10.40
2022-08-17T22:54:07.358Z,10.60
2022-08-17T22:56:48.851Z,11.50
2022-08-17T22:59:21.220Z,10.30
2022-08-17T23:01:48.372Z,10.00
2022-08-17T23:04:12.869Z,9.80
2022-08-17T23:06:36.686Z,10.30
2022-08-17T23:09:01.776Z,10.60
2022-08-17T23:11:36.923Z,10.80
2022-08-17T23:14:12.320Z,9.80
2022-08-17T23:16:35.781Z,10.50
2022-08-17T23:18:59.755Z,10.40
2022-08-17T23:21:27.389Z,11.00
2022-08-17T23:23:51.554Z,10.40
2022-08-17T23:26:14.243Z,10.90
2022-08-17T23:28:37.710Z,10.50
2022-08-17T23:31:00.275Z,10.30
2022-08-17T23:33:30.187Z,10.20
2022-08-17T23:35:55.986Z,10.60
2022-08-17T23:38:18.739Z,11.20
2022-08-17T23:40:41.685Z,10.60
2022-08-17T23:43:11.429Z,9.80
2022-08-17T23:45:47.734Z,10.00
2022-08-17T23:48:14.835Z,10.60
2022-08-17T23:50:54.799Z,10.70
2022-08-17T23:53:18.140Z,10.30
2022-08-17T23:55:43.434Z,10.50
2022-08-17T23:58:06.177Z,10.30
